sensor_id;sensor_type;location;lat;lon;timestamp;P1;durP1;ratioP1;P2;durP2;ratioP2
37305;SDS011;23193;42.656;21.170;2023-06-10T00:01:16;15.00;;;6.22;;
37305;SDS011;23193;42.656;21.170;2023-06-10T00:03:43;10.43;;;5.93;;
37305;SDS011;23193;42.656;21.170;2023-06-10T00:06:09;12.80;;;6.43;;
37305;SDS011;23193;42.656;21.170;2023-06-10T00:08:35;15.93;;;6.60;;
37305;SDS011;23193;42.656;21.170;2023-06-10T00:11:02;12.07;;;5.50;;
37305;SDS011;23193;42.656;21.170;2023-06-10T00:13:29;14.13;;;6.10;;
37305;SDS011;23193;42.656;21.170;2023-06-10T00:15:55;13.48;;;5.82;;
37305;SDS011;23193;42.656;21.170;2023-06-10T00:18:21;14.88;;;5.72;;
37305;SDS011;23193;42.656;21.170;2023-06-10T00:20:47;13.95;;;6.47;;
37305;SDS011;23193;42.656;21.170;2023-06-10T00:23:18;19.10;;;5.50;;
37305;SDS011;23193;42.656;21.170;2023-06-10T00:25:44;12.55;;;6.00;;
37305;SDS011;23193;42.656;21.170;2023-06-10T00:28:10;13.82;;;6.20;;
37305;SDS011;23193;42.656;21.170;2023-06-10T00:30:36;15.15;;;6.30;;
37305;SDS011;23193;42.656;21.170;2023-06-10T00:33:03;13.75;;;5.05;;
37305;SDS011;23193;42.656;21.170;2023-06-10T00:35:29;9.77;;;5.35;;
37305;SDS011;23193;42.656;21.170;2023-06-10T00:37:55;13.90;;;5.80;;
37305;SDS011;23193;42.656;21.170;2023-06-10T00:40:21;12.18;;;5.68;;
37305;SDS011;23193;42.656;21.170;2023-06-10T00:42:47;11.80;;;5.68;;
37305;SDS011;23193;42.656;21.170;2023-06-10T00:45:13;16.40;;;6.35;;
37305;SDS011;23193;42.656;21.170;2023-06-10T00:47:39;15.10;;;6.20;;
37305;SDS011;23193;42.656;21.170;2023-06-10T00:50:06;13.45;;;6.55;;
37305;SDS011;23193;42.656;21.170;2023-06-10T00:52:32;8.50;;;5.60;;
37305;SDS011;23193;42.656;21.170;2023-06-10T00:54:59;10.73;;;5.90;;
37305;SDS011;23193;42.656;21.170;2023-06-10T00:57:25;14.60;;;6.45;;
37305;SDS011;23193;42.656;21.170;2023-06-10T00:59:52;14.68;;;6.70;;
37305;SDS011;23193;42.656;21.170;2023-06-10T01:02:18;14.30;;;6.45;;
37305;SDS011;23193;42.656;21.170;2023-06-10T01:04:44;21.73;;;7.18;;
37305;SDS011;23193;42.656;21.170;2023-06-10T01:12:26;13.48;;;6.72;;
37305;SDS011;23193;42.656;21.170;2023-06-10T01:14:54;15.15;;;6.60;;
37305;SDS011;23193;42.656;21.170;2023-06-10T01:17:20;10.98;;;6.78;;
37305;SDS011;23193;42.656;21.170;2023-06-10T01:19:54;12.02;;;7.22;;
37305;SDS011;23193;42.656;21.170;2023-06-10T01:22:20;15.02;;;7.22;;
37305;SDS011;23193;42.656;21.170;2023-06-10T01:24:47;22.90;;;7.68;;
37305;SDS011;23193;42.656;21.170;2023-06-10T01:27:15;12.52;;;6.88;;
37305;SDS011;23193;42.656;21.170;2023-06-10T01:29:43;12.63;;;6.30;;
37305;SDS011;23193;42.656;21.170;2023-06-10T01:35:09;14.27;;;7.43;;
37305;SDS011;23193;42.656;21.170;2023-06-10T01:37:36;22.90;;;8.00;;
37305;SDS011;23193;42.656;21.170;2023-06-10T01:40:05;16.33;;;7.70;;
37305;SDS011;23193;42.656;21.170;2023-06-10T01:42:31;11.50;;;7.00;;
37305;SDS011;23193;42.656;21.170;2023-06-10T01:44:58;19.42;;;8.15;;
37305;SDS011;23193;42.656;21.170;2023-06-10T01:47:24;17.45;;;7.97;;
37305;SDS011;23193;42.656;21.170;2023-06-10T01:49:50;18.63;;;7.28;;
37305;SDS011;23193;42.656;21.170;2023-06-10T01:52:16;16.95;;;7.45;;
37305;SDS011;23193;42.656;21.170;2023-06-10T01:54:43;12.45;;;6.90;;
37305;SDS011;23193;42.656;21.170;2023-06-10T01:57:09;18.38;;;7.00;;
37305;SDS011;23193;42.656;21.170;2023-06-10T01:59:36;19.13;;;7.70;;
37305;SDS011;23193;42.656;21.170;2023-06-10T02:02:03;11.68;;;6.78;;
37305;SDS011;23193;42.656;21.170;2023-06-10T02:04:30;15.88;;;6.97;;
37305;SDS011;23193;42.656;21.170;2023-06-10T02:06:56;14.02;;;6.97;;
37305;SDS011;23193;42.656;21.170;2023-06-10T02:09:22;13.63;;;7.20;;
37305;SDS011;23193;42.656;21.170;2023-06-10T02:11:48;17.65;;;7.40;;
37305;SDS011;23193;42.656;21.170;2023-06-10T02:14:14;16.95;;;7.60;;
37305;SDS011;23193;42.656;21.170;2023-06-10T02:16:40;20.27;;;7.30;;
37305;SDS011;23193;42.656;21.170;2023-06-10T02:19:11;15.32;;;7.03;;
37305;SDS011;23193;42.656;21.170;2023-06-10T02:21:37;11.50;;;7.43;;
37305;SDS011;23193;42.656;21.170;2023-06-10T02:24:04;10.88;;;6.90;;
37305;SDS011;23193;42.656;21.170;2023-06-10T02:26:30;18.50;;;7.22;;
37305;SDS011;23193;42.656;21.170;2023-06-10T02:28:56;17.15;;;7.53;;
37305;SDS011;23193;42.656;21.170;2023-06-10T02:31:23;15.23;;;7.43;;
37305;SDS011;23193;42.656;21.170;2023-06-10T02:33:50;27.30;;;8.30;;
37305;SDS011;23193;42.656;21.170;2023-06-10T02:36:16;10.27;;;6.68;;
37305;SDS011;23193;42.656;21.170;2023-06-10T02:38:42;13.60;;;6.63;;
37305;SDS011;23193;42.656;21.170;2023-06-10T02:41:08;15.43;;;7.55;;
37305;SDS011;23193;42.656;21.170;2023-06-10T02:43:34;11.07;;;6.75;;
37305;SDS011;23193;42.656;21.170;2023-06-10T02:46:00;16.35;;;6.65;;
37305;SDS011;23193;42.656;21.170;2023-06-10T02:48:27;14.98;;;7.57;;
37305;SDS011;23193;42.656;21.170;2023-06-10T02:50:53;17.77;;;7.95;;
37305;SDS011;23193;42.656;21.170;2023-06-10T02:53:21;17.48;;;7.95;;
37305;SDS011;23193;42.656;21.170;2023-06-10T02:55:47;15.18;;;7.72;;
37305;SDS011;23193;42.656;21.170;2023-06-10T02:58:13;22.30;;;8.18;;
37305;SDS011;23193;42.656;21.170;2023-06-10T03:00:40;18.70;;;7.60;;
37305;SDS011;23193;42.656;21.170;2023-06-10T03:03:07;14.90;;;7.45;;
37305;SDS011;23193;42.656;21.170;2023-06-10T03:05:35;13.95;;;7.57;;
37305;SDS011;23193;42.656;21.170;2023-06-10T03:08:01;17.02;;;8.40;;
37305;SDS011;23193;42.656;21.170;2023-06-10T03:10:27;23.35;;;8.57;;
37305;SDS011;23193;42.656;21.170;2023-06-10T03:12:53;16.30;;;7.97;;
37305;SDS011;23193;42.656;21.170;2023-06-10T03:15:19;22.55;;;7.97;;
37305;SDS011;23193;42.656;21.170;2023-06-10T03:17:46;20.05;;;7.68;;
37305;SDS011;23193;42.656;21.170;2023-06-10T03:20:13;21.02;;;7.78;;
37305;SDS011;23193;42.656;21.170;2023-06-10T03:22:40;16.35;;;7.85;;
37305;SDS011;23193;42.656;21.170;2023-06-10T03:25:07;14.70;;;8.52;;
37305;SDS011;23193;42.656;21.170;2023-06-10T03:27:42;19.70;;;11.15;;
37305;SDS011;23193;42.656;21.170;2023-06-10T03:30:08;26.55;;;11.88;;
37305;SDS011;23193;42.656;21.170;2023-06-10T03:32:35;23.17;;;12.00;;
37305;SDS011;23193;42.656;21.170;2023-06-10T03:35:01;15.25;;;10.23;;
37305;SDS011;23193;42.656;21.170;2023-06-10T03:37:27;14.82;;;7.70;;
37305;SDS011;23193;42.656;21.170;2023-06-10T03:39:53;12.55;;;7.15;;
37305;SDS011;23193;42.656;21.170;2023-06-10T03:42:20;14.00;;;6.68;;
37305;SDS011;23193;42.656;21.170;2023-06-10T03:44:46;10.45;;;6.55;;
37305;SDS011;23193;42.656;21.170;2023-06-10T03:47:12;10.73;;;7.00;;
37305;SDS011;23193;42.656;21.170;2023-06-10T03:49:38;8.23;;;6.13;;
37305;SDS011;23193;42.656;21.170;2023-06-10T03:52:05;14.07;;;6.93;;
37305;SDS011;23193;42.656;21.170;2023-06-10T03:54:32;11.85;;;6.63;;
37305;SDS011;23193;42.656;21.170;2023-06-10T03:57:00;12.38;;;7.30;;
37305;SDS011;23193;42.656;21.170;2023-06-10T03:59:27;9.88;;;6.95;;
37305;SDS011;23193;42.656;21.170;2023-06-10T04:01:54;10.23;;;6.35;;
37305;SDS011;23193;42.656;21.170;2023-06-10T04:04:20;17.98;;;7.18;;
37305;SDS011;23193;42.656;21.170;2023-06-10T04:06:46;10.90;;;7.00;;
37305;SDS011;23193;42.656;21.170;2023-06-10T04:09:13;8.90;;;6.70;;
37305;SDS011;23193;42.656;21.170;2023-06-10T04:11:39;8.88;;;6.15;;
37305;SDS011;23193;42.656;21.170;2023-06-10T04:14:05;12.90;;;5.95;;
37305;SDS011;23193;42.656;21.170;2023-06-10T04:16:31;10.50;;;6.43;;
37305;SDS011;23193;42.656;21.170;2023-06-10T04:18:58;10.32;;;6.30;;
37305;SDS011;23193;42.656;21.170;2023-06-10T04:21:25;14.45;;;7.30;;
37305;SDS011;23193;42.656;21.170;2023-06-10T04:23:51;9.55;;;5.95;;
37305;SDS011;23193;42.656;21.170;2023-06-10T04:26:17;13.70;;;6.30;;
37305;SDS011;23193;42.656;21.170;2023-06-10T04:28:43;8.35;;;5.63;;
37305;SDS011;23193;42.656;21.170;2023-06-10T04:31:10;10.07;;;5.55;;
37305;SDS011;23193;42.656;21.170;2023-06-10T04:33:36;8.75;;;5.78;;
37305;SDS011;23193;42.656;21.170;2023-06-10T04:36:02;10.43;;;5.90;;
37305;SDS011;23193;42.656;21.170;2023-06-10T04:38:29;8.18;;;5.07;;
37305;SDS011;23193;42.656;21.170;2023-06-10T04:40:56;11.77;;;5.28;;
37305;SDS011;23193;42.656;21.170;2023-06-10T04:43:22;11.25;;;6.03;;
37305;SDS011;23193;42.656;21.170;2023-06-10T04:45:48;15.73;;;5.88;;
37305;SDS011;23193;42.656;21.170;2023-06-10T04:48:15;11.95;;;5.63;;
37305;SDS011;23193;42.656;21.170;2023-06-10T04:50:41;11.55;;;5.70;;
37305;SDS011;23193;42.656;21.170;2023-06-10T04:53:07;10.45;;;5.75;;
37305;SDS011;23193;42.656;21.170;2023-06-10T04:55:34;9.82;;;5.38;;
37305;SDS011;23193;42.656;21.170;2023-06-10T04:58:01;13.32;;;5.55;;
37305;SDS011;23193;42.656;21.170;2023-06-10T05:00:32;10.23;;;5.57;;
37305;SDS011;23193;42.656;21.170;2023-06-10T05:02:58;8.43;;;5.22;;
37305;SDS011;23193;42.656;21.170;2023-06-10T05:05:25;7.32;;;5.13;;
37305;SDS011;23193;42.656;21.170;2023-06-10T05:07:54;9.82;;;5.53;;
37305;SDS011;23193;42.656;21.170;2023-06-10T05:10:21;12.70;;;5.30;;
37305;SDS011;23193;42.656;21.170;2023-06-10T05:12:47;13.38;;;5.65;;
37305;SDS011;23193;42.656;21.170;2023-06-10T05:15:13;11.07;;;5.18;;
37305;SDS011;23193;42.656;21.170;2023-06-10T05:17:39;9.65;;;5.57;;
37305;SDS011;23193;42.656;21.170;2023-06-10T05:20:05;12.35;;;5.45;;
37305;SDS011;23193;42.656;21.170;2023-06-10T05:22:32;10.10;;;5.22;;
37305;SDS011;23193;42.656;21.170;2023-06-10T05:24:59;12.02;;;5.82;;
37305;SDS011;23193;42.656;21.170;2023-06-10T05:27:25;12.82;;;6.22;;
37305;SDS011;23193;42.656;21.170;2023-06-10T05:29:51;16.98;;;5.85;;
37305;SDS011;23193;42.656;21.170;2023-06-10T05:32:18;15.27;;;7.35;;
37305;SDS011;23193;42.656;21.170;2023-06-10T05:34:45;12.68;;;6.22;;
37305;SDS011;23193;42.656;21.170;2023-06-10T05:37:12;16.33;;;6.28;;
37305;SDS011;23193;42.656;21.170;2023-06-10T05:39:39;14.38;;;5.95;;
37305;SDS011;23193;42.656;21.170;2023-06-10T05:42:08;11.82;;;6.60;;
37305;SDS011;23193;42.656;21.170;2023-06-10T05:44:35;10.05;;;6.38;;
37305;SDS011;23193;42.656;21.170;2023-06-10T05:47:05;9.27;;;6.13;;
37305;SDS011;23193;42.656;21.170;2023-06-10T05:49:32;16.08;;;5.43;;
37305;SDS011;23193;42.656;21.170;2023-06-10T05:51:59;10.73;;;5.72;;
37305;SDS011;23193;42.656;21.170;2023-06-10T05:54:26;15.10;;;5.53;;
37305;SDS011;23193;42.656;21.170;2023-06-10T05:56:52;23.42;;;6.88;;
37305;SDS011;23193;42.656;21.170;2023-06-10T05:59:18;12.60;;;7.72;;
37305;SDS011;23193;42.656;21.170;2023-06-10T06:01:44;19.98;;;8.20;;
37305;SDS011;23193;42.656;21.170;2023-06-10T06:04:10;11.98;;;7.20;;
37305;SDS011;23193;42.656;21.170;2023-06-10T06:06:38;17.50;;;7.55;;
37305;SDS011;23193;42.656;21.170;2023-06-10T06:09:05;12.45;;;7.35;;
37305;SDS011;23193;42.656;21.170;2023-06-10T06:11:33;19.55;;;7.53;;
37305;SDS011;23193;42.656;21.170;2023-06-10T06:13:59;17.45;;;7.10;;
37305;SDS011;23193;42.656;21.170;2023-06-10T06:16:25;11.82;;;6.38;;
37305;SDS011;23193;42.656;21.170;2023-06-10T06:18:51;10.13;;;6.00;;
37305;SDS011;23193;42.656;21.170;2023-06-10T06:21:17;9.55;;;6.35;;
37305;SDS011;23193;42.656;21.170;2023-06-10T06:23:43;10.27;;;6.25;;
37305;SDS011;23193;42.656;21.170;2023-06-10T06:26:09;10.52;;;6.22;;
37305;SDS011;23193;42.656;21.170;2023-06-10T06:28:36;9.07;;;6.00;;
37305;SDS011;23193;42.656;21.170;2023-06-10T06:31:02;12.13;;;6.38;;
37305;SDS011;23193;42.656;21.170;2023-06-10T06:33:29;9.68;;;6.15;;
37305;SDS011;23193;42.656;21.170;2023-06-10T06:35:55;15.13;;;6.45;;
37305;SDS011;23193;42.656;21.170;2023-06-10T06:38:22;12.57;;;5.93;;
37305;SDS011;23193;42.656;21.170;2023-06-10T06:40:48;16.23;;;6.72;;
37305;SDS011;23193;42.656;21.170;2023-06-10T06:43:15;9.30;;;5.60;;
37305;SDS011;23193;42.656;21.170;2023-06-10T06:45:42;16.65;;;5.88;;
37305;SDS011;23193;42.656;21.170;2023-06-10T06:48:08;7.53;;;4.43;;
37305;SDS011;23193;42.656;21.170;2023-06-10T06:50:34;16.73;;;5.38;;
37305;SDS011;23193;42.656;21.170;2023-06-10T06:53:00;9.23;;;5.18;;
37305;SDS011;23193;42.656;21.170;2023-06-10T06:55:26;8.80;;;4.35;;
37305;SDS011;23193;42.656;21.170;2023-06-10T06:57:53;8.73;;;4.97;;
37305;SDS011;23193;42.656;21.170;2023-06-10T07:00:19;11.75;;;5.05;;
37305;SDS011;23193;42.656;21.170;2023-06-10T07:02:45;11.75;;;4.30;;
37305;SDS011;23193;42.656;21.170;2023-06-10T07:05:11;12.60;;;5.20;;
37305;SDS011;23193;42.656;21.170;2023-06-10T07:07:37;7.53;;;4.97;;
37305;SDS011;23193;42.656;21.170;2023-06-10T07:10:03;7.80;;;4.95;;
37305;SDS011;23193;42.656;21.170;2023-06-10T07:12:30;9.07;;;4.47;;
37305;SDS011;23193;42.656;21.170;2023-06-10T07:14:56;10.25;;;4.22;;
37305;SDS011;23193;42.656;21.170;2023-06-10T07:17:22;13.38;;;4.43;;
37305;SDS011;23193;42.656;21.170;2023-06-10T07:19:48;5.43;;;4.40;;
37305;SDS011;23193;42.656;21.170;2023-06-10T07:22:16;11.63;;;5.95;;
37305;SDS011;23193;42.656;21.170;2023-06-10T07:24:42;6.38;;;3.80;;
37305;SDS011;23193;42.656;21.170;2023-06-10T07:27:08;14.77;;;4.70;;
37305;SDS011;23193;42.656;21.170;2023-06-10T07:29:35;8.75;;;4.35;;
37305;SDS011;23193;42.656;21.170;2023-06-10T07:32:02;6.68;;;4.00;;
37305;SDS011;23193;42.656;21.170;2023-06-10T07:34:28;9.80;;;4.15;;
37305;SDS011;23193;42.656;21.170;2023-06-10T07:36:54;14.05;;;7.35;;
37305;SDS011;23193;42.656;21.170;2023-06-10T07:39:20;15.38;;;7.00;;
37305;SDS011;23193;42.656;21.170;2023-06-10T07:41:46;13.40;;;5.13;;
37305;SDS011;23193;42.656;21.170;2023-06-10T07:44:14;12.90;;;5.70;;
37305;SDS011;23193;42.656;21.170;2023-06-10T07:46:41;11.48;;;5.75;;
37305;SDS011;23193;42.656;21.170;2023-06-10T07:49:07;13.98;;;5.32;;
37305;SDS011;23193;42.656;21.170;2023-06-10T07:51:33;8.77;;;5.97;;
37305;SDS011;23193;42.656;21.170;2023-06-10T07:54:00;10.43;;;5.97;;
37305;SDS011;23193;42.656;21.170;2023-06-10T07:56:26;11.20;;;7.05;;
37305;SDS011;23193;42.656;21.170;2023-06-10T07:58:52;13.18;;;5.97;;
37305;SDS011;23193;42.656;21.170;2023-06-10T08:01:18;16.30;;;6.95;;
37305;SDS011;23193;42.656;21.170;2023-06-10T08:03:44;10.25;;;5.90;;
37305;SDS011;23193;42.656;21.170;2023-06-10T08:06:10;17.80;;;6.38;;
37305;SDS011;23193;42.656;21.170;2023-06-10T08:08:37;17.35;;;6.40;;
37305;SDS011;23193;42.656;21.170;2023-06-10T08:11:07;12.52;;;6.57;;
37305;SDS011;23193;42.656;21.170;2023-06-10T08:13:34;8.82;;;6.70;;
37305;SDS011;23193;42.656;21.170;2023-06-10T08:16:00;9.07;;;6.57;;
37305;SDS011;23193;42.656;21.170;2023-06-10T08:18:26;12.00;;;6.97;;
37305;SDS011;23193;42.656;21.170;2023-06-10T08:20:52;13.80;;;5.85;;
37305;SDS011;23193;42.656;21.170;2023-06-10T08:23:18;10.05;;;5.65;;
37305;SDS011;23193;42.656;21.170;2023-06-10T08:25:44;9.25;;;6.35;;
37305;SDS011;23193;42.656;21.170;2023-06-10T08:28:10;9.65;;;7.05;;
37305;SDS011;23193;42.656;21.170;2023-06-10T08:30:36;10.98;;;5.65;;
37305;SDS011;23193;42.656;21.170;2023-06-10T08:33:03;11.65;;;5.40;;
37305;SDS011;23193;42.656;21.170;2023-06-10T08:35:29;32.90;;;7.40;;
37305;SDS011;23193;42.656;21.170;2023-06-10T08:37:55;9.68;;;5.97;;
37305;SDS011;23193;42.656;21.170;2023-06-10T08:40:21;12.23;;;6.35;;
37305;SDS011;23193;42.656;21.170;2023-06-10T08:43:06;11.38;;;6.38;;
37305;SDS011;23193;42.656;21.170;2023-06-10T08:45:34;12.98;;;8.55;;
37305;SDS011;23193;42.656;21.170;2023-06-10T08:48:00;16.73;;;8.10;;
37305;SDS011;23193;42.656;21.170;2023-06-10T08:50:31;9.45;;;6.97;;
37305;SDS011;23193;42.656;21.170;2023-06-10T08:52:58;9.13;;;5.90;;
37305;SDS011;23193;42.656;21.170;2023-06-10T08:55:48;7.43;;;5.85;;
37305;SDS011;23193;42.656;21.170;2023-06-10T08:58:12;8.60;;;6.78;;
37305;SDS011;23193;42.656;21.170;2023-06-10T09:00:38;10.10;;;8.25;;
37305;SDS011;23193;42.656;21.170;2023-06-10T09:03:05;9.68;;;6.75;;
37305;SDS011;23193;42.656;21.170;2023-06-10T09:05:33;16.75;;;9.45;;
37305;SDS011;23193;42.656;21.170;2023-06-10T09:08:01;13.23;;;7.68;;
37305;SDS011;23193;42.656;21.170;2023-06-10T09:10:27;8.27;;;7.28;;
37305;SDS011;23193;42.656;21.170;2023-06-10T09:12:53;11.07;;;7.68;;
37305;SDS011;23193;42.656;21.170;2023-06-10T09:15:19;13.68;;;10.15;;
37305;SDS011;23193;42.656;21.170;2023-06-10T09:17:46;31.13;;;18.70;;
37305;SDS011;23193;42.656;21.170;2023-06-10T09:20:12;13.02;;;10.52;;
37305;SDS011;23193;42.656;21.170;2023-06-10T09:22:38;13.80;;;9.57;;
37305;SDS011;23193;42.656;21.170;2023-06-10T09:25:08;14.00;;;9.70;;
37305;SDS011;23193;42.656;21.170;2023-06-10T09:27:56;19.75;;;8.70;;
37305;SDS011;23193;42.656;21.170;2023-06-10T09:32:57;15.00;;;8.30;;
37305;SDS011;23193;42.656;21.170;2023-06-10T09:35:24;17.90;;;8.30;;
37305;SDS011;23193;42.656;21.170;2023-06-10T09:37:54;16.25;;;8.07;;
37305;SDS011;23193;42.656;21.170;2023-06-10T09:40:20;11.02;;;7.53;;
37305;SDS011;23193;42.656;21.170;2023-06-10T09:42:46;10.30;;;7.80;;
37305;SDS011;23193;42.656;21.170;2023-06-10T09:45:19;13.82;;;9.23;;
37305;SDS011;23193;42.656;21.170;2023-06-10T09:47:46;14.15;;;10.02;;
37305;SDS011;23193;42.656;21.170;2023-06-10T09:50:13;13.75;;;10.27;;
37305;SDS011;23193;42.656;21.170;2023-06-10T09:52:39;12.25;;;9.32;;
37305;SDS011;23193;42.656;21.170;2023-06-10T09:55:07;13.32;;;9.93;;
37305;SDS011;23193;42.656;21.170;2023-06-10T09:57:34;11.50;;;9.93;;
37305;SDS011;23193;42.656;21.170;2023-06-10T10:00:07;17.05;;;11.23;;
37305;SDS011;23193;42.656;21.170;2023-06-10T10:02:44;14.85;;;11.90;;
37305;SDS011;23193;42.656;21.170;2023-06-10T10:05:12;15.77;;;12.93;;
37305;SDS011;23193;42.656;21.170;2023-06-10T10:07:39;16.13;;;13.23;;
37305;SDS011;23193;42.656;21.170;2023-06-10T10:10:06;19.27;;;14.25;;
37305;SDS011;23193;42.656;21.170;2023-06-10T10:12:34;12.57;;;10.85;;
37305;SDS011;23193;42.656;21.170;2023-06-10T10:15:01;14.52;;;9.98;;
37305;SDS011;23193;42.656;21.170;2023-06-10T10:17:28;24.02;;;11.20;;
37305;SDS011;23193;42.656;21.170;2023-06-10T10:19:58;10.57;;;8.88;;
37305;SDS011;23193;42.656;21.170;2023-06-10T10:22:29;9.70;;;7.90;;
37305;SDS011;23193;42.656;21.170;2023-06-10T10:24:56;11.15;;;8.15;;
37305;SDS011;23193;42.656;21.170;2023-06-10T10:27:27;8.15;;;7.35;;
37305;SDS011;23193;42.656;21.170;2023-06-10T10:29:54;9.02;;;7.20;;
37305;SDS011;23193;42.656;21.170;2023-06-10T10:32:28;7.22;;;6.50;;
37305;SDS011;23193;42.656;21.170;2023-06-10T10:35:03;8.05;;;6.53;;
37305;SDS011;23193;42.656;21.170;2023-06-10T10:37:32;8.65;;;6.00;;
37305;SDS011;23193;42.656;21.170;2023-06-10T10:39:59;5.75;;;5.20;;
37305;SDS011;23193;42.656;21.170;2023-06-10T10:42:26;12.98;;;7.00;;
37305;SDS011;23193;42.656;21.170;2023-06-10T10:44:52;7.00;;;5.70;;
37305;SDS011;23193;42.656;21.170;2023-06-10T10:47:20;7.93;;;5.50;;
37305;SDS011;23193;42.656;21.170;2023-06-10T10:49:48;10.65;;;6.32;;
37305;SDS011;23193;42.656;21.170;2023-06-10T10:52:15;6.35;;;4.90;;
37305;SDS011;23193;42.656;21.170;2023-06-10T10:54:44;6.68;;;5.32;;
37305;SDS011;23193;42.656;21.170;2023-06-10T11:05:05;9.00;;;5.30;;
37305;SDS011;23193;42.656;21.170;2023-06-10T11:07:32;10.75;;;5.50;;
37305;SDS011;23193;42.656;21.170;2023-06-10T11:12:25;7.63;;;4.78;;
37305;SDS011;23193;42.656;21.170;2023-06-10T11:14:54;6.38;;;5.20;;
37305;SDS011;23193;42.656;21.170;2023-06-10T11:17:21;8.43;;;4.80;;
37305;SDS011;23193;42.656;21.170;2023-06-10T11:19:48;4.35;;;3.70;;
37305;SDS011;23193;42.656;21.170;2023-06-10T11:22:17;8.23;;;4.63;;
37305;SDS011;23193;42.656;21.170;2023-06-10T11:24:47;7.72;;;3.92;;
37305;SDS011;23193;42.656;21.170;2023-06-10T11:27:14;7.05;;;4.30;;
37305;SDS011;23193;42.656;21.170;2023-06-10T11:30:42;4.07;;;3.38;;
37305;SDS011;23193;42.656;21.170;2023-06-10T11:32:37;5.35;;;2.72;;
37305;SDS011;23193;42.656;21.170;2023-06-10T11:35:04;4.93;;;2.42;;
37305;SDS011;23193;42.656;21.170;2023-06-10T11:37:30;2.40;;;2.08;;
37305;SDS011;23193;42.656;21.170;2023-06-10T11:39:57;3.17;;;2.72;;
37305;SDS011;23193;42.656;21.170;2023-06-10T11:42:24;4.18;;;3.20;;
37305;SDS011;23193;42.656;21.170;2023-06-10T11:44:50;7.15;;;5.30;;
37305;SDS011;23193;42.656;21.170;2023-06-10T11:47:17;4.00;;;3.50;;
37305;SDS011;23193;42.656;21.170;2023-06-10T11:49:44;4.05;;;3.30;;
37305;SDS011;23193;42.656;21.170;2023-06-10T11:52:10;4.13;;;3.22;;
37305;SDS011;23193;42.656;21.170;2023-06-10T11:54:37;7.32;;;3.63;;
37305;SDS011;23193;42.656;21.170;2023-06-10T11:57:03;4.75;;;3.97;;
37305;SDS011;23193;42.656;21.170;2023-06-10T11:59:30;4.53;;;3.72;;
37305;SDS011;23193;42.656;21.170;2023-06-10T12:01:56;5.47;;;3.72;;
37305;SDS011;23193;42.656;21.170;2023-06-10T12:04:22;5.95;;;4.10;;
37305;SDS011;23193;42.656;21.170;2023-06-10T12:06:49;7.03;;;4.93;;
37305;SDS011;23193;42.656;21.170;2023-06-10T12:09:25;10.95;;;6.50;;
37305;SDS011;23193;42.656;21.170;2023-06-10T12:17:02;12.18;;;5.07;;
37305;SDS011;23193;42.656;21.170;2023-06-10T12:19:29;7.88;;;5.00;;
37305;SDS011;23193;42.656;21.170;2023-06-10T12:21:56;8.23;;;5.13;;
37305;SDS011;23193;42.656;21.170;2023-06-10T12:24:22;7.28;;;4.97;;
37305;SDS011;23193;42.656;21.170;2023-06-10T12:26:48;5.63;;;4.85;;
37305;SDS011;23193;42.656;21.170;2023-06-10T12:34:20;7.97;;;5.05;;
37305;SDS011;23193;42.656;21.170;2023-06-10T12:36:49;6.35;;;3.90;;
37305;SDS011;23193;42.656;21.170;2023-06-10T12:39:15;7.53;;;5.05;;
37305;SDS011;23193;42.656;21.170;2023-06-10T12:41:46;11.93;;;6.90;;
37305;SDS011;23193;42.656;21.170;2023-06-10T12:44:13;14.82;;;7.25;;
37305;SDS011;23193;42.656;21.170;2023-06-10T12:46:40;9.88;;;6.70;;
37305;SDS011;23193;42.656;21.170;2023-06-10T12:49:06;8.27;;;6.70;;
37305;SDS011;23193;42.656;21.170;2023-06-10T12:51:32;5.25;;;4.15;;
37305;SDS011;23193;42.656;21.170;2023-06-10T12:54:00;11.30;;;6.63;;
37305;SDS011;23193;42.656;21.170;2023-06-10T12:56:27;9.30;;;5.55;;
37305;SDS011;23193;42.656;21.170;2023-06-10T12:58:53;4.55;;;3.63;;
37305;SDS011;23193;42.656;21.170;2023-06-10T13:01:19;8.93;;;5.47;;
37305;SDS011;23193;42.656;21.170;2023-06-10T13:03:46;7.30;;;4.10;;
37305;SDS011;23193;42.656;21.170;2023-06-10T13:06:13;11.55;;;5.93;;
37305;SDS011;23193;42.656;21.170;2023-06-10T13:08:39;5.50;;;4.63;;
37305;SDS011;23193;42.656;21.170;2023-06-10T13:11:05;8.43;;;6.38;;
37305;SDS011;23193;42.656;21.170;2023-06-10T13:13:32;11.00;;;7.18;;
37305;SDS011;23193;42.656;21.170;2023-06-10T13:15:58;10.48;;;8.07;;
37305;SDS011;23193;42.656;21.170;2023-06-10T13:18:24;10.10;;;7.80;;
37305;SDS011;23193;42.656;21.170;2023-06-10T13:20:50;8.93;;;6.25;;
37305;SDS011;23193;42.656;21.170;2023-06-10T13:23:17;11.40;;;6.10;;
37305;SDS011;23193;42.656;21.170;2023-06-10T13:25:43;6.38;;;5.53;;
37305;SDS011;23193;42.656;21.170;2023-06-10T13:28:09;8.48;;;5.32;;
37305;SDS011;23193;42.656;21.170;2023-06-10T13:30:36;6.15;;;5.55;;
37305;SDS011;23193;42.656;21.170;2023-06-10T13:33:02;14.68;;;7.22;;
37305;SDS011;23193;42.656;21.170;2023-06-10T13:35:29;9.57;;;8.05;;
37305;SDS011;23193;42.656;21.170;2023-06-10T13:37:55;13.93;;;8.23;;
37305;SDS011;23193;42.656;21.170;2023-06-10T13:40:21;12.63;;;9.60;;
37305;SDS011;23193;42.656;21.170;2023-06-10T13:42:47;11.75;;;7.97;;
37305;SDS011;23193;42.656;21.170;2023-06-10T13:45:15;10.07;;;8.20;;
37305;SDS011;23193;42.656;21.170;2023-06-10T13:47:42;12.38;;;9.52;;
37305;SDS011;23193;42.656;21.170;2023-06-10T13:50:08;12.65;;;9.10;;
37305;SDS011;23193;42.656;21.170;2023-06-10T13:52:35;13.02;;;9.18;;
37305;SDS011;23193;42.656;21.170;2023-06-10T13:55:01;12.75;;;10.35;;
37305;SDS011;23193;42.656;21.170;2023-06-10T13:57:27;15.25;;;10.75;;
37305;SDS011;23193;42.656;21.170;2023-06-10T13:59:53;16.27;;;11.30;;
37305;SDS011;23193;42.656;21.170;2023-06-10T14:02:21;20.77;;;11.85;;
37305;SDS011;23193;42.656;21.170;2023-06-10T14:04:47;19.75;;;12.90;;
37305;SDS011;23193;42.656;21.170;2023-06-10T14:07:13;19.77;;;15.18;;
37305;SDS011;23193;42.656;21.170;2023-06-10T14:09:40;19.45;;;15.73;;
37305;SDS011;23193;42.656;21.170;2023-06-10T14:12:06;17.90;;;15.93;;
37305;SDS011;23193;42.656;21.170;2023-06-10T14:14:34;36.08;;;16.30;;
37305;SDS011;23193;42.656;21.170;2023-06-10T14:17:01;22.98;;;15.57;;
37305;SDS011;23193;42.656;21.170;2023-06-10T14:19:28;20.48;;;16.25;;
37305;SDS011;23193;42.656;21.170;2023-06-10T14:21:54;29.80;;;17.63;;
37305;SDS011;23193;42.656;21.170;2023-06-10T14:24:21;26.83;;;17.13;;
37305;SDS011;23193;42.656;21.170;2023-06-10T14:26:47;22.08;;;17.60;;
37305;SDS011;23193;42.656;21.170;2023-06-10T14:29:13;20.30;;;16.17;;
37305;SDS011;23193;42.656;21.170;2023-06-10T14:31:39;21.65;;;16.08;;
37305;SDS011;23193;42.656;21.170;2023-06-10T14:34:06;33.28;;;17.75;;
37305;SDS011;23193;42.656;21.170;2023-06-10T14:36:35;22.65;;;17.52;;
37305;SDS011;23193;42.656;21.170;2023-06-10T14:39:02;24.13;;;17.17;;
37305;SDS011;23193;42.656;21.170;2023-06-10T14:41:29;25.95;;;16.98;;
37305;SDS011;23193;42.656;21.170;2023-06-10T14:43:55;29.75;;;18.45;;
37305;SDS011;23193;42.656;21.170;2023-06-10T14:46:21;23.10;;;17.70;;
37305;SDS011;23193;42.656;21.170;2023-06-10T14:48:47;18.02;;;15.93;;
37305;SDS011;23193;42.656;21.170;2023-06-10T14:51:15;19.35;;;14.95;;
37305;SDS011;23193;42.656;21.170;2023-06-10T14:53:41;19.25;;;15.10;;